createdAt,value
2023-04-14T00:05:50.949Z,7.70
2023-04-14T00:15:54.427Z,7.70
2023-04-14T00:25:59.262Z,7.60
2023-04-14T00:36:02.687Z,7.50
2023-04-14T00:46:07.973Z,7.40
2023-04-14T00:56:11.630Z,7.20
2023-04-14T01:06:16.844Z,7.10
2023-04-14T01:16:33.458Z,7.00
2023-04-14T01:26:39.683Z,7.00
2023-04-14T01:36:50.491Z,7.00
2023-04-14T01:47:02.505Z,6.80
2023-04-14T01:57:09.474Z,6.80
2023-04-14T02:07:14.667Z,6.80
2023-04-14T02:17:21.679Z,6.90
2023-04-14T02:27:33.034Z,6.90
2023-04-14T02:37:43.199Z,6.70
2023-04-14T02:47:52.212Z,6.40
2023-04-14T02:57:57.844Z,6.00
2023-04-14T03:08:02.011Z,5.80
2023-04-14T03:18:08.248Z,5.70
2023-04-14T03:28:16.004Z,6.00
2023-04-14T03:38:26.381Z,6.30
2023-04-14T03:48:34.414Z,6.50
2023-04-14T03:58:40.439Z,6.60
2023-04-14T04:08:44.951Z,6.70
2023-04-14T04:18:51.639Z,6.90
2023-04-14T04:29:01.653Z,7.20
2023-04-14T04:39:07.413Z,7.40
2023-04-14T04:49:15.907Z,7.60
2023-04-14T04:59:21.291Z,7.90
2023-04-14T05:09:24.650Z,8.10
2023-04-14T05:19:29.452Z,8.30
2023-04-14T05:29:32.833Z,8.60
2023-04-14T05:39:37.694Z,9.10
2023-04-14T05:49:41.071Z,9.20
2023-04-14T05:59:45.853Z,9.50
2023-04-14T06:09:49.231Z,10.20
2023-04-14T06:19:54.049Z,11.20
2023-04-14T06:30:00.015Z,12.40
2023-04-14T06:40:05.442Z,13.10
2023-04-14T06:50:09.706Z,14.40
2023-04-14T07:00:16.204Z,16.40
2023-04-14T07:10:19.885Z,17.50
2023-04-14T07:20:24.940Z,15.80
2023-04-14T07:30:28.360Z,16.20
2023-04-14T07:40:33.220Z,19.80
2023-04-14T07:50:36.684Z,20.40
2023-04-14T08:00:41.386Z,19.40
2023-04-14T08:10:44.860Z,22.00
2023-04-14T08:20:49.646Z,24.80
2023-04-14T08:30:53.152Z,24.70
2023-04-14T08:40:58.554Z,21.00
2023-04-14T08:51:15.674Z,18.80
2023-04-14T09:01:20.892Z,17.10
2023-04-14T09:11:24.559Z,16.40
2023-04-14T09:21:49.920Z,17.20
2023-04-14T09:31:53.366Z,17.20
2023-04-14T09:41:58.101Z,16.30
2023-04-14T09:52:09.050Z,16.00
2023-04-14T10:02:13.937Z,15.70
2023-04-14T10:12:18.576Z,15.70
2023-04-14T10:22:27.665Z,16.00
2023-04-14T10:32:35.481Z,15.90
2023-04-14T10:42:55.922Z,15.60
2023-04-14T10:52:59.851Z,15.50
2023-04-14T11:03:10.770Z,15.80
2023-04-14T11:13:16.545Z,16.80
2023-04-14T11:23:29.739Z,18.10
2023-04-14T11:33:35.896Z,22.20
2023-04-14T11:43:46.581Z,23.20
2023-04-14T11:53:50.075Z,19.80
2023-04-14T12:03:55.412Z,20.50
2023-04-14T12:13:59.311Z,21.00
2023-04-14T12:24:04.053Z,23.10
2023-04-14T12:34:07.506Z,22.10
2023-04-14T12:44:19.789Z,19.30
2023-04-14T12:54:23.266Z,18.20
2023-04-14T13:04:28.035Z,18.90
2023-04-14T13:14:31.744Z,19.90
2023-04-14T13:24:36.899Z,19.10
2023-04-14T13:34:41.213Z,17.80
2023-04-14T13:44:46.228Z,16.90
2023-04-14T13:54:49.585Z,16.40
2023-04-14T14:04:54.310Z,16.30
2023-04-14T14:14:57.647Z,16.20
2023-04-14T14:25:17.495Z,15.90
2023-04-14T14:35:22.454Z,15.70
2023-04-14T14:45:30.850Z,15.50
2023-04-14T14:55:35.109Z,15.30
2023-04-14T15:05:40.845Z,15.00
2023-04-14T15:15:44.499Z,14.70
2023-04-14T15:25:49.433Z,14.60
2023-04-14T15:35:52.819Z,14.50
2023-04-14T15:45:57.726Z,14.30
2023-04-14T15:56:01.163Z,14.20
2023-04-14T16:06:07.560Z,14.00
2023-04-14T16:16:10.925Z,13.80
2023-04-14T16:26:16.958Z,13.60
2023-04-14T16:36:21.787Z,13.40
2023-04-14T16:46:26.798Z,13.10
2023-04-14T16:56:30.675Z,12.90
2023-04-14T17:06:35.396Z,12.70
2023-04-14T17:16:39.691Z,12.50
2023-04-14T17:26:45.847Z,12.30
2023-04-14T17:36:50.090Z,12.10
2023-04-14T17:46:55.124Z,11.90
2023-04-14T17:56:58.491Z,11.90
2023-04-14T18:07:03.343Z,11.80
2023-04-14T18:17:07.115Z,11.80
2023-04-14T18:37:19.125Z,11.60
2023-04-14T18:47:24.187Z,11.30
2023-04-14T18:57:29.147Z,11.10
2023-04-14T19:07:34.065Z,11.10
2023-04-14T19:17:37.717Z,10.80
2023-04-14T19:27:43.309Z,10.90
2023-04-14T19:37:47.085Z,10.80
2023-04-14T19:47:52.127Z,10.70
2023-04-14T19:57:56.229Z,10.70
2023-04-14T20:08:01.060Z,10.60
2023-04-14T20:18:04.810Z,10.50
2023-04-14T20:28:10.020Z,10.40
2023-04-14T20:38:15.303Z,10.30
2023-04-14T20:48:20.600Z,10.20
2023-04-14T20:58:24.010Z,10.20
2023-04-14T21:08:29.856Z,10.10
2023-04-14T21:18:33.262Z,10.00
2023-04-14T21:28:38.169Z,9.90
2023-04-14T21:38:41.732Z,9.80
2023-04-14T21:48:46.833Z,9.60
2023-04-14T21:58:50.335Z,9.40
2023-04-14T22:08:55.339Z,9.30
2023-04-14T22:18:58.836Z,9.10
2023-04-14T22:29:04.270Z,8.90
2023-04-14T22:39:08.277Z,8.80
2023-04-14T22:49:13.128Z,8.70
2023-04-14T22:59:17.456Z,8.80
2023-04-14T23:09:22.466Z,8.70
2023-04-14T23:19:25.910Z,8.40
2023-04-14T23:29:30.876Z,8.20
2023-04-14T23:39:34.457Z,7.90
2023-04-14T23:49:39.193Z,7.90
2023-04-14T23:59:43.171Z,7.90
